Terminal Aerodrome Forecast
Issued by NWS Cleveland, OH

Home | Current Version | Previous Version | Graphics & Text | Print | Product List | Glossary On
Versions: 1 2 3 4 5 6 7 8 9 10 11 12 13 14
421
FTUS41 KCLE 181720
TAFMFD
TAF
KMFD 181720Z 1818/1918 VRB04KT P6SM SCT040
     FM182300 10010KT 5SM -RA OVC030
     FM190100 07011KT 2SM RA OVC010
     FM190700 36010KT 6SM -RASN OVC005
     FM190900 35011KT 3SM -SHSN OVC005
     FM191400 33015G28KT P6SM VCSH OVC015=

USA.gov is the U.S. government's official web portal to all federal, state and local government web resources and services.